^^
Station Historical Data
Daily Summary for April 16, 2018 Units:  Both    English   Metric
« Previous Day
Next Day »
Daily Weekly Monthly Yearly Custom
  High: Low: Average:
Temperature: TemperatureF °F /  -17.8 °C 33.3 °F /  0.7 °C 37.9 °F /  3.3 °C
Dew Point: DewpointF °F /  -17.8 °C 22.8 °F /  -5.1 °C 29.9 °F /  -1.2 °C
Humidity: Humidity% 59% 73%
Wind Speed: WindSpeedMPHmph /  0km/h - 3.5mph /  5.6km/h
Wind Gust: WindSpeedGustMPHmph /  0km/h - -
Wind- - SW
Pressure: PressureIn in /  0 hPa 30.08 in /  1018.5 hPa -
Precipitation: 0.01 in /  0.25 mm    
Historical Graphs
 
 
Tabular Data for April 16, 2018
Time Temperature Dew Point Pressure Wind Wind Speed Wind Gust Humidity Rainfall Rate (Hourly)
TemperatureF °F /  -17.8 °C DewpointF °F /  -17.8 °C PressureInin /  0hPa Calm     Humidity% HourlyPrecipInin /  0mm
00:00 42.6 °F /  5.9 °C 38.7 °F /  3.7 °C 30.08in /  1018.5hPa WNW 2.9mph /  4.7km/h 3.0mph /  4.8km/h 86% 0.00in /  0mm
00:10 42.3 °F /  5.7 °C 38.7 °F /  3.7 °C 30.08in /  1018.5hPa ENE 8.1mph /  13km/h 8.1mph /  13km/h 87% 0.00in /  0mm
00:15 42.3 °F /  5.7 °C 38.7 °F /  3.7 °C 30.09in /  1018.8hPa WNW 0.9mph /  1.4km/h 3.0mph /  4.8km/h 87% 0.00in /  0mm
00:20 42.1 °F /  5.6 °C 38.1 °F /  3.4 °C 30.09in /  1018.8hPa West 2.9mph /  4.7km/h 7.0mph /  11.3km/h 86% 0.00in /  0mm
00:25 41.9 °F /  5.5 °C 38.3 °F /  3.5 °C 30.10in /  1019.2hPa WNW 2.0mph /  3.2km/h 3.0mph /  4.8km/h 87% 0.00in /  0mm
00:30 41.7 °F /  5.4 °C 38.1 °F /  3.4 °C 30.10in /  1019.2hPa West 2.0mph /  3.2km/h 2.0mph /  3.2km/h 87% 0.00in /  0mm
00:35 41.7 °F /  5.4 °C 37.8 °F /  3.2 °C 30.10in /  1019.2hPa West 2.0mph /  3.2km/h 5.0mph /  8km/h 86% 0.00in /  0mm
00:45 41.4 °F /  5.2 °C 37.6 °F /  3.1 °C 30.10in /  1019.2hPa ESE 2.0mph /  3.2km/h 2.0mph /  3.2km/h 86% 0.00in /  0mm
00:50 41.2 °F /  5.1 °C 37.4 °F /  3 °C 30.10in /  1019.2hPa WNW 2.0mph /  3.2km/h 5.0mph /  8km/h 86% 0.00in /  0mm
00:55 41.2 °F /  5.1 °C 37.4 °F /  3 °C 30.11in /  1019.5hPa West 0.9mph /  1.4km/h 2.0mph /  3.2km/h 86% 0.00in /  0mm
01:00 41.2 °F /  5.1 °C 37.4 °F /  3 °C 30.11in /  1019.5hPa ENE 0.9mph /  1.4km/h 6.0mph /  9.7km/h 86% 0.00in /  0mm
01:05 41.0 °F /  5 °C 37.2 °F /  2.9 °C 30.11in /  1019.5hPa SW 2.0mph /  3.2km/h 3.0mph /  4.8km/h 86% 0.00in /  0mm
01:15 40.8 °F /  4.9 °C 36.7 °F /  2.6 °C 30.11in /  1019.5hPa WNW 2.9mph /  4.7km/h 10.0mph /  16.1km/h 85% 0.00in /  0mm
01:30 40.8 °F /  4.9 °C 36.3 °F /  2.4 °C 30.12in /  1019.9hPa West 0.9mph /  1.4km/h 6.0mph /  9.7km/h 84% 0.00in /  0mm
01:35 40.6 °F /  4.8 °C 36.1 °F /  2.3 °C 30.12in /  1019.9hPa NE 2.9mph /  4.7km/h 6.0mph /  9.7km/h 84% 0.00in /  0mm
01:45 40.5 °F /  4.7 °C 36.0 °F /  2.2 °C 30.12in /  1019.9hPa WNW 4.9mph /  7.9km/h 6.0mph /  9.7km/h 84% 0.00in /  0mm
02:01 40.5 °F /  4.7 °C 35.4 °F /  1.9 °C 30.12in /  1019.9hPa NW 4.0mph /  6.4km/h 8.0mph /  12.9km/h 82% 0.00in /  0mm
02:16 40.3 °F /  4.6 °C 35.6 °F /  2 °C 30.13in /  1020.2hPa WSW 6.0mph /  9.7km/h 7.0mph /  11.3km/h 83% 0.00in /  0mm
02:21 40.1 °F /  4.5 °C 35.4 °F /  1.9 °C 30.13in /  1020.2hPa West 4.0mph /  6.4km/h 6.0mph /  9.7km/h 83% 0.00in /  0mm
02:36 39.7 °F /  4.3 °C 35.2 °F /  1.8 °C 30.13in /  1020.2hPa ESE 2.9mph /  4.7km/h 3.0mph /  4.8km/h 84% 0.00in /  0mm
02:41 39.7 °F /  4.3 °C 35.6 °F /  2 °C 30.13in /  1020.2hPa SE 4.9mph /  7.9km/h 5.0mph /  8km/h 85% 0.00in /  0mm
02:46 39.7 °F /  4.3 °C 35.2 °F /  1.8 °C 30.13in /  1020.2hPa WNW 2.0mph /  3.2km/h 5.0mph /  8km/h 84% 0.00in /  0mm
02:56 39.4 °F /  4.1 °C 35.2 °F /  1.8 °C 30.14in /  1020.5hPa West 2.0mph /  3.2km/h 3.0mph /  4.8km/h 85% 0.00in /  0mm
03:01 39.2 °F /  4 °C 35.1 °F /  1.7 °C 30.13in /  1020.2hPa SW 0.9mph /  1.4km/h 3.0mph /  4.8km/h 85% 0.00in /  0mm
03:06 39.0 °F /  3.9 °C 34.9 °F /  1.6 °C 30.14in /  1020.5hPa Calm   2.0mph /  3.2km/h 85% 0.00in /  0mm
03:11 39.0 °F /  3.9 °C 35.2 °F /  1.8 °C 30.14in /  1020.5hPa Calm   3.0mph /  4.8km/h 86% 0.00in /  0mm
03:16 38.8 °F /  3.8 °C 34.3 °F /  1.3 °C 30.14in /  1020.5hPa SW 2.9mph /  4.7km/h 9.0mph /  14.5km/h 84% 0.00in /  0mm
03:26 38.7 °F /  3.7 °C 34.9 °F /  1.6 °C 30.14in /  1020.5hPa Calm   5.0mph /  8km/h 86% 0.00in /  0mm
03:36 38.5 °F /  3.6 °C 34.7 °F /  1.5 °C 30.14in /  1020.5hPa ESE 2.0mph /  3.2km/h 2.0mph /  3.2km/h 86% 0.00in /  0mm
03:41 38.3 °F /  3.5 °C 34.7 °F /  1.5 °C 30.14in /  1020.5hPa NE 2.9mph /  4.7km/h 6.0mph /  9.7km/h 87% 0.00in /  0mm
03:46 38.1 °F /  3.4 °C 34.3 °F /  1.3 °C 30.15in /  1020.9hPa SE 0.9mph /  1.4km/h 3.0mph /  4.8km/h 86% 0.00in /  0mm
03:51 38.1 °F /  3.4 °C 34.5 °F /  1.4 °C 30.15in /  1020.9hPa Calm   3.0mph /  4.8km/h 87% 0.00in /  0mm
03:56 38.1 °F /  3.4 °C 34.5 °F /  1.4 °C 30.15in /  1020.9hPa East 0.9mph /  1.4km/h 2.0mph /  3.2km/h 87% 0.00in /  0mm
04:01 38.1 °F /  3.4 °C 34.9 °F /  1.6 °C 30.15in /  1020.9hPa ENE 2.0mph /  3.2km/h 2.0mph /  3.2km/h 88% 0.00in /  0mm
04:12 37.9 °F /  3.3 °C 34.7 °F /  1.5 °C 30.15in /  1020.9hPa East 0.9mph /  1.4km/h 1.0mph /  1.6km/h 88% 0.00in /  0mm
04:17 37.9 °F /  3.3 °C 34.3 °F /  1.3 °C 30.15in /  1020.9hPa West 0.9mph /  1.4km/h 3.0mph /  4.8km/h 87% 0.00in /  0mm
04:22 37.9 °F /  3.3 °C 34.7 °F /  1.5 °C 30.15in /  1020.9hPa WSW 0.9mph /  1.4km/h 2.0mph /  3.2km/h 88% 0.00in /  0mm
04:47 37.8 °F /  3.2 °C 34.5 °F /  1.4 °C 30.16in /  1021.2hPa Calm   1.0mph /  1.6km/h 88% 0.00in /  0mm
05:12 37.2 °F /  2.9 °C 33.4 °F /  0.8 °C 30.16in /  1021.2hPa SW 0.9mph /  1.4km/h 6.0mph /  9.7km/h 86% 0.00in /  0mm
05:17 37.2 °F /  2.9 °C 33.4 °F /  0.8 °C 30.16in /  1021.2hPa Calm   4.0mph /  6.4km/h 86% 0.00in /  0mm
05:42 36.9 °F /  2.7 °C 34.0 °F /  1.1 °C 30.16in /  1021.2hPa Calm   3.0mph /  4.8km/h 89% 0.00in /  0mm
06:02 36.9 °F /  2.7 °C 33.4 °F /  0.8 °C 30.17in /  1021.6hPa Calm   6.0mph /  9.7km/h 87% 0.00in /  0mm
06:07 36.9 °F /  2.7 °C 33.4 °F /  0.8 °C 30.18in /  1021.9hPa ENE 4.0mph /  6.4km/h 4.0mph /  6.4km/h 87% 0.00in /  0mm
06:12 36.9 °F /  2.7 °C 33.1 °F /  0.6 °C 30.18in /  1021.9hPa West 0.9mph /  1.4km/h 4.0mph /  6.4km/h 86% 0.00in /  0mm
06:17 36.9 °F /  2.7 °C 33.4 °F /  0.8 °C 30.18in /  1021.9hPa Calm   3.0mph /  4.8km/h 87% 0.00in /  0mm
06:22 36.9 °F /  2.7 °C 33.4 °F /  0.8 °C 30.18in /  1021.9hPa Calm   1.0mph /  1.6km/h 87% 0.00in /  0mm
06:27 36.9 °F /  2.7 °C 33.6 °F /  0.9 °C 30.18in /  1021.9hPa WSW 4.0mph /  6.4km/h 6.0mph /  9.7km/h 88% 0.00in /  0mm
06:37 37.0 °F /  2.8 °C 33.6 °F /  0.9 °C 30.18in /  1021.9hPa West 0.9mph /  1.4km/h 1.0mph /  1.6km/h 87% 0.00in /  0mm
06:43 36.9 °F /  2.7 °C 33.4 °F /  0.8 °C 30.18in /  1021.9hPa WNW 2.0mph /  3.2km/h 2.0mph /  3.2km/h 87% 0.00in /  0mm
06:48 37.0 °F /  2.8 °C 33.3 °F /  0.7 °C 30.18in /  1021.9hPa West 0.9mph /  1.4km/h 3.0mph /  4.8km/h 86% 0.00in /  0mm
06:58 36.9 °F /  2.7 °C 33.4 °F /  0.8 °C 30.18in /  1021.9hPa Calm   3.0mph /  4.8km/h 87% 0.00in /  0mm
07:18 36.9 °F /  2.7 °C 33.1 °F /  0.6 °C 30.20in /  1022.6hPa Calm   4.0mph /  6.4km/h 86% 0.00in /  0mm
07:23 36.9 °F /  2.7 °C 32.5 °F /  0.3 °C 30.20in /  1022.6hPa NW 4.0mph /  6.4km/h 8.0mph /  12.9km/h 84% 0.00in /  0mm
07:28 36.9 °F /  2.7 °C 32.5 °F /  0.3 °C 30.20in /  1022.6hPa WNW 2.9mph /  4.7km/h 9.0mph /  14.5km/h 84% 0.00in /  0mm
07:33 36.9 °F /  2.7 °C 32.7 °F /  0.4 °C 30.20in /  1022.6hPa SW 4.0mph /  6.4km/h 6.0mph /  9.7km/h 85% 0.00in /  0mm
07:38 36.9 °F /  2.7 °C 32.5 °F /  0.3 °C 30.21in /  1022.9hPa WNW 6.0mph /  9.7km/h 9.0mph /  14.5km/h 84% 0.00in /  0mm
07:43 36.9 °F /  2.7 °C 32.5 °F /  0.3 °C 30.21in /  1022.9hPa WSW 2.0mph /  3.2km/h 10.0mph /  16.1km/h 84% 0.00in /  0mm
07:48 36.9 °F /  2.7 °C 32.2 °F /  0.1 °C 30.21in /  1022.9hPa Calm   8.0mph /  12.9km/h 83% 0.00in /  0mm
07:58 36.7 °F /  2.6 °C 32.4 °F /  0.2 °C 30.22in /  1023.2hPa WNW 2.0mph /  3.2km/h 9.0mph /  14.5km/h 84% 0.00in /  0mm
08:23 36.7 °F /  2.6 °C 32.0 °F /  0 °C 30.24in /  1023.9hPa ESE 0.9mph /  1.4km/h 6.0mph /  9.7km/h 83% 0.00in /  0mm
08:28 36.9 °F /  2.7 °C 31.6 °F /  -0.2 °C 30.24in /  1023.9hPa WNW 2.9mph /  4.7km/h 12.0mph /  19.3km/h 81% 0.00in /  0mm
08:34 36.9 °F /  2.7 °C 31.6 °F /  -0.2 °C 30.24in /  1023.9hPa East 2.0mph /  3.2km/h 10.0mph /  16.1km/h 81% 0.00in /  0mm
08:39 36.9 °F /  2.7 °C 31.8 °F /  -0.1 °C 30.24in /  1023.9hPa NE 4.0mph /  6.4km/h 11.0mph /  17.7km/h 82% 0.00in /  0mm
08:44 37.0 °F /  2.8 °C 31.8 °F /  -0.1 °C 30.24in /  1023.9hPa NE 2.9mph /  4.7km/h 8.0mph /  12.9km/h 81% 0.00in /  0mm
08:49 37.0 °F /  2.8 °C 31.8 °F /  -0.1 °C 30.24in /  1023.9hPa Calm   2.0mph /  3.2km/h 81% 0.00in /  0mm
08:54 37.0 °F /  2.8 °C 31.5 °F /  -0.3 °C 30.24in /  1023.9hPa WNW 2.9mph /  4.7km/h 4.0mph /  6.4km/h 80% 0.00in /  0mm
08:59 37.2 °F /  2.9 °C 31.6 °F /  -0.2 °C 30.24in /  1023.9hPa WNW 2.9mph /  4.7km/h 6.0mph /  9.7km/h 80% 0.00in /  0mm
09:09 37.6 °F /  3.1 °C 31.3 °F /  -0.4 °C 30.24in /  1023.9hPa West 4.0mph /  6.4km/h 9.0mph /  14.5km/h 78% 0.00in /  0mm
09:14 37.4 °F /  3 °C 31.1 °F /  -0.5 °C 30.25in /  1024.3hPa SE 2.0mph /  3.2km/h 12.0mph /  19.3km/h 78% 0.00in /  0mm
09:39 38.1 °F /  3.4 °C 31.6 °F /  -0.2 °C 30.26in /  1024.6hPa West 8.1mph /  13km/h 12.0mph /  19.3km/h 77% 0.00in /  0mm
09:59 38.1 °F /  3.4 °C 31.3 °F /  -0.4 °C 30.26in /  1024.6hPa North 4.0mph /  6.4km/h 8.0mph /  12.9km/h 76% 0.01in /  0.25mm
10:14 38.8 °F /  3.8 °C 30.9 °F /  -0.6 °C 30.26in /  1024.6hPa West 8.1mph /  13km/h 11.0mph /  17.7km/h 73% 0.01in /  0.25mm
10:19 39.0 °F /  3.9 °C 30.7 °F /  -0.7 °C 30.26in /  1024.6hPa NW 2.9mph /  4.7km/h 14.0mph /  22.5km/h 72% 0.01in /  0.25mm
10:24 39.4 °F /  4.1 °C 31.5 °F /  -0.3 °C 30.26in /  1024.6hPa WSW 0.9mph /  1.4km/h 11.0mph /  17.7km/h 73% 0.01in /  0.25mm
10:29 39.6 °F /  4.2 °C 31.6 °F /  -0.2 °C 30.26in /  1024.6hPa SW 2.9mph /  4.7km/h 9.0mph /  14.5km/h 73% 0.01in /  0.25mm
10:34 39.6 °F /  4.2 °C 31.6 °F /  -0.2 °C 30.27in /  1024.9hPa West 2.0mph /  3.2km/h 10.0mph /  16.1km/h 73% 0.01in /  0.25mm
10:44 39.4 °F /  4.1 °C 31.8 °F /  -0.1 °C 30.27in /  1024.9hPa WNW 8.9mph /  14.3km/h 10.0mph /  16.1km/h 74% 0.01in /  0.25mm
10:50 39.6 °F /  4.2 °C 31.6 °F /  -0.2 °C 30.28in /  1025.3hPa West 4.0mph /  6.4km/h 16.0mph /  25.7km/h 73% 0.00in /  0mm
10:55 39.4 °F /  4.1 °C 31.5 °F /  -0.3 °C 30.29in /  1025.6hPa WNW 12.1mph /  19.5km/h 16.0mph /  25.7km/h 73% 0.00in /  0mm
11:00 39.4 °F /  4.1 °C 32.5 °F /  0.3 °C 30.29in /  1025.6hPa SW 11.0mph /  17.7km/h 11.0mph /  17.7km/h 76% 0.00in /  0mm
11:05 39.7 °F /  4.3 °C 31.1 °F /  -0.5 °C 30.29in /  1025.6hPa SW 6.9mph /  11.1km/h 15.0mph /  24.1km/h 71% 0.00in /  0mm
11:10 40.1 °F /  4.5 °C 31.5 °F /  -0.3 °C 30.29in /  1025.6hPa NE 4.9mph /  7.9km/h 15.0mph /  24.1km/h 71% 0.00in /  0mm
11:15 40.5 °F /  4.7 °C 30.7 °F /  -0.7 °C 30.29in /  1025.6hPa WNW 2.9mph /  4.7km/h 17.0mph /  27.4km/h 68% 0.00in /  0mm
11:55 42.3 °F /  5.7 °C 30.6 °F /  -0.8 °C 30.27in /  1024.9hPa WSW 8.9mph /  14.3km/h 14.0mph /  22.5km/h 63% 0.00in /  0mm
12:00 41.7 °F /  5.4 °C 30.4 °F /  -0.9 °C 30.27in /  1024.9hPa WNW 4.9mph /  7.9km/h 12.0mph /  19.3km/h 64% 0.00in /  0mm
12:05 41.7 °F /  5.4 °C 30.7 °F /  -0.7 °C 30.27in /  1024.9hPa Calm   13.0mph /  20.9km/h 65% 0.00in /  0mm
12:10 42.3 °F /  5.7 °C 32.2 °F /  0.1 °C 30.27in /  1024.9hPa NW 6.0mph /  9.7km/h 11.0mph /  17.7km/h 67% 0.00in /  0mm
12:20 41.9 °F /  5.5 °C 30.6 °F /  -0.8 °C 30.28in /  1025.3hPa WNW 8.9mph /  14.3km/h 13.0mph /  20.9km/h 64% 0.00in /  0mm
12:30 42.3 °F /  5.7 °C 31.3 °F /  -0.4 °C 30.29in /  1025.6hPa WNW 8.1mph /  13km/h 11.0mph /  17.7km/h 65% 0.00in /  0mm
12:40 42.4 °F /  5.8 °C 31.1 °F /  -0.5 °C 30.28in /  1025.3hPa WNW 8.9mph /  14.3km/h 12.0mph /  19.3km/h 64% 0.00in /  0mm
12:45 42.6 °F /  5.9 °C 31.3 °F /  -0.4 °C 30.28in /  1025.3hPa SSW 4.0mph /  6.4km/h 12.0mph /  19.3km/h 64% 0.00in /  0mm
12:50 42.6 °F /  5.9 °C 31.3 °F /  -0.4 °C 30.28in /  1025.3hPa WNW 2.9mph /  4.7km/h 14.0mph /  22.5km/h 64% 0.00in /  0mm
13:16 42.8 °F /  6 °C 30.2 °F /  -1 °C 30.29in /  1025.6hPa WNW 10.1mph /  16.3km/h 14.0mph /  22.5km/h 61% 0.00in /  0mm
13:21 42.3 °F /  5.7 °C 30.6 °F /  -0.8 °C 30.29in /  1025.6hPa West 6.0mph /  9.7km/h 9.0mph /  14.5km/h 63% 0.00in /  0mm
13:31 42.4 °F /  5.8 °C 30.7 °F /  -0.7 °C 30.29in /  1025.6hPa WNW 2.9mph /  4.7km/h 11.0mph /  17.7km/h 63% 0.00in /  0mm
13:36 42.8 °F /  6 °C 30.2 °F /  -1 °C 30.29in /  1025.6hPa SSW 0.9mph /  1.4km/h 12.0mph /  19.3km/h 61% 0.00in /  0mm
13:41 43.2 °F /  6.2 °C 30.2 °F /  -1 °C 30.29in /  1025.6hPa WNW 10.1mph /  16.3km/h 15.0mph /  24.1km/h 60% 0.00in /  0mm
13:51 43.2 °F /  6.2 °C 29.8 °F /  -1.2 °C 30.28in /  1025.3hPa WNW 4.0mph /  6.4km/h 9.0mph /  14.5km/h 59% 0.00in /  0mm
13:56 43.3 °F /  6.3 °C 30.7 °F /  -0.7 °C 30.29in /  1025.6hPa WNW 8.1mph /  13km/h 15.0mph /  24.1km/h 61% 0.00in /  0mm
14:06 43.5 °F /  6.4 °C 30.9 °F /  -0.6 °C 30.29in /  1025.6hPa West 4.0mph /  6.4km/h 15.0mph /  24.1km/h 61% 0.00in /  0mm
14:11 43.2 °F /  6.2 °C 30.6 °F /  -0.8 °C 30.28in /  1025.3hPa WNW 6.0mph /  9.7km/h 13.0mph /  20.9km/h 61% 0.00in /  0mm
14:21 43.2 °F /  6.2 °C 30.2 °F /  -1 °C 30.28in /  1025.3hPa SSW 6.0mph /  9.7km/h 14.0mph /  22.5km/h 60% 0.00in /  0mm
14:26 43.9 °F /  6.6 °C 30.9 °F /  -0.6 °C 30.29in /  1025.6hPa WNW 6.9mph /  11.1km/h 17.0mph /  27.4km/h 60% 0.00in /  0mm
14:36 44.2 °F /  6.8 °C 31.3 °F /  -0.4 °C 30.28in /  1025.3hPa West 2.0mph /  3.2km/h 11.0mph /  17.7km/h 60% 0.00in /  0mm
14:41 43.3 °F /  6.3 °C 30.4 °F /  -0.9 °C 30.28in /  1025.3hPa West 8.9mph /  14.3km/h 20.0mph /  32.2km/h 60% 0.00in /  0mm
14:56 42.8 °F /  6 °C 30.7 °F /  -0.7 °C 30.29in /  1025.6hPa West 6.0mph /  9.7km/h 11.0mph /  17.7km/h 62% 0.00in /  0mm
15:06 42.1 °F /  5.6 °C 30.7 °F /  -0.7 °C 30.29in /  1025.6hPa ESE 2.9mph /  4.7km/h 8.0mph /  12.9km/h 64% 0.00in /  0mm
15:11 41.9 °F /  5.5 °C 30.9 °F /  -0.6 °C 30.30in /  1026hPa SSW 4.0mph /  6.4km/h 4.0mph /  6.4km/h 65% 0.00in /  0mm
15:16 41.7 °F /  5.4 °C 31.3 °F /  -0.4 °C 30.30in /  1026hPa WSW 6.9mph /  11.1km/h 7.0mph /  11.3km/h 66% 0.00in /  0mm
15:21 41.4 °F /  5.2 °C 30.0 °F /  -1.1 °C 30.30in /  1026hPa SW 0.9mph /  1.4km/h 7.0mph /  11.3km/h 64% 0.00in /  0mm
15:26 41.4 °F /  5.2 °C 30.9 °F /  -0.6 °C 30.31in /  1026.3hPa WNW 12.1mph /  19.5km/h 15.0mph /  24.1km/h 66% 0.00in /  0mm
15:31 40.8 °F /  4.9 °C 30.0 °F /  -1.1 °C 30.30in /  1026hPa ESE 6.0mph /  9.7km/h 14.0mph /  22.5km/h 65% 0.00in /  0mm
15:36 40.6 °F /  4.8 °C 29.8 °F /  -1.2 °C 30.30in /  1026hPa West 2.9mph /  4.7km/h 12.0mph /  19.3km/h 65% 0.00in /  0mm
15:41 41.2 °F /  5.1 °C 30.4 °F /  -0.9 °C 30.30in /  1026hPa WNW 6.0mph /  9.7km/h 11.0mph /  17.7km/h 65% 0.00in /  0mm
15:51 41.4 °F /  5.2 °C 29.7 °F /  -1.3 °C 30.30in /  1026hPa NW 6.0mph /  9.7km/h 15.0mph /  24.1km/h 63% 0.00in /  0mm
15:56 41.9 °F /  5.5 °C 30.2 °F /  -1 °C 30.31in /  1026.3hPa WSW 6.0mph /  9.7km/h 14.0mph /  22.5km/h 63% 0.00in /  0mm
16:01 42.1 °F /  5.6 °C 30.0 °F /  -1.1 °C 30.31in /  1026.3hPa WSW 11.0mph /  17.7km/h 15.0mph /  24.1km/h 62% 0.00in /  0mm
16:06 42.1 °F /  5.6 °C 30.0 °F /  -1.1 °C 30.31in /  1026.3hPa West 11.0mph /  17.7km/h 15.0mph /  24.1km/h 62% 0.00in /  0mm
16:11 42.3 °F /  5.7 °C 30.2 °F /  -1 °C 30.32in /  1026.6hPa WNW 6.9mph /  11.1km/h 17.0mph /  27.4km/h 62% 0.00in /  0mm
16:16 42.6 °F /  5.9 °C 31.3 °F /  -0.4 °C 30.33in /  1027hPa WNW 11.0mph /  17.7km/h 15.0mph /  24.1km/h 64% 0.00in /  0mm
16:31 40.5 °F /  4.7 °C 28.4 °F /  -2 °C 30.33in /  1027hPa ESE 2.0mph /  3.2km/h 12.0mph /  19.3km/h 62% 0.00in /  0mm
16:41 41.2 °F /  5.1 °C 28.4 °F /  -2 °C 30.34in /  1027.3hPa SSE 2.9mph /  4.7km/h 6.0mph /  9.7km/h 60% 0.00in /  0mm
16:46 41.5 °F /  5.3 °C 29.1 °F /  -1.6 °C 30.34in /  1027.3hPa ESE 2.0mph /  3.2km/h 7.0mph /  11.3km/h 61% 0.00in /  0mm
16:51 41.4 °F /  5.2 °C 28.0 °F /  -2.2 °C 30.34in /  1027.3hPa SW 2.0mph /  3.2km/h 14.0mph /  22.5km/h 59% 0.00in /  0mm
16:56 41.4 °F /  5.2 °C 28.0 °F /  -2.2 °C 30.34in /  1027.3hPa WNW 2.9mph /  4.7km/h 8.0mph /  12.9km/h 59% 0.00in /  0mm
17:01 39.6 °F /  4.2 °C 26.8 °F /  -2.9 °C 30.34in /  1027.3hPa West 4.9mph /  7.9km/h 15.0mph /  24.1km/h 60% 0.00in /  0mm
17:06 38.5 °F /  3.6 °C 27.0 °F /  -2.8 °C 30.35in /  1027.7hPa Calm   8.0mph /  12.9km/h 63% 0.00in /  0mm
17:11 38.1 °F /  3.4 °C 27.0 °F /  -2.8 °C 30.35in /  1027.7hPa SW 2.9mph /  4.7km/h 6.0mph /  9.7km/h 64% 0.00in /  0mm
17:16 37.8 °F /  3.2 °C 27.1 °F /  -2.7 °C 30.35in /  1027.7hPa ESE 2.9mph /  4.7km/h 9.0mph /  14.5km/h 65% 0.00in /  0mm
17:21 36.9 °F /  2.7 °C 26.6 °F /  -3 °C 30.36in /  1028hPa WSW 2.0mph /  3.2km/h 8.0mph /  12.9km/h 66% 0.00in /  0mm
17:31 36.1 °F /  2.3 °C 26.6 °F /  -3 °C 30.37in /  1028.3hPa West 4.9mph /  7.9km/h 9.0mph /  14.5km/h 68% 0.00in /  0mm
17:36 36.0 °F /  2.2 °C 26.8 °F /  -2.9 °C 30.37in /  1028.3hPa SW 2.0mph /  3.2km/h 7.0mph /  11.3km/h 69% 0.00in /  0mm
17:41 35.6 °F /  2 °C 26.4 °F /  -3.1 °C 30.37in /  1028.3hPa SW 0.9mph /  1.4km/h 10.0mph /  16.1km/h 69% 0.00in /  0mm
17:46 35.4 °F /  1.9 °C 26.6 °F /  -3 °C 30.37in /  1028.3hPa WNW 2.9mph /  4.7km/h 12.0mph /  19.3km/h 70% 0.00in /  0mm
17:51 35.2 °F /  1.8 °C 26.1 °F /  -3.3 °C 30.38in /  1028.7hPa WNW 2.9mph /  4.7km/h 11.0mph /  17.7km/h 69% 0.00in /  0mm
18:01 35.1 °F /  1.7 °C 27.0 °F /  -2.8 °C 30.38in /  1028.7hPa WNW 4.0mph /  6.4km/h 10.0mph /  16.1km/h 72% 0.00in /  0mm
18:06 35.1 °F /  1.7 °C 26.2 °F /  -3.2 °C 30.38in /  1028.7hPa WNW 2.9mph /  4.7km/h 6.0mph /  9.7km/h 70% 0.00in /  0mm
18:16 35.1 °F /  1.7 °C 26.6 °F /  -3 °C 30.39in /  1029hPa WSW 0.9mph /  1.4km/h 3.0mph /  4.8km/h 71% 0.00in /  0mm
18:21 34.9 °F /  1.6 °C 26.1 °F /  -3.3 °C 30.39in /  1029hPa WSW 2.0mph /  3.2km/h 5.0mph /  8km/h 70% 0.00in /  0mm
18:31 34.7 °F /  1.5 °C 25.9 °F /  -3.4 °C 30.39in /  1029hPa WSW 0.9mph /  1.4km/h 6.0mph /  9.7km/h 70% 0.00in /  0mm
18:36 34.5 °F /  1.4 °C 26.1 °F /  -3.3 °C 30.40in /  1029.3hPa Calm   9.0mph /  14.5km/h 71% 0.00in /  0mm
18:41 34.5 °F /  1.4 °C 26.4 °F /  -3.1 °C 30.40in /  1029.3hPa WSW 4.9mph /  7.9km/h 11.0mph /  17.7km/h 72% 0.00in /  0mm
18:46 34.5 °F /  1.4 °C 26.1 °F /  -3.3 °C 30.40in /  1029.3hPa WSW 4.9mph /  7.9km/h 10.0mph /  16.1km/h 71% 0.00in /  0mm
18:56 34.5 °F /  1.4 °C 26.1 °F /  -3.3 °C 30.40in /  1029.3hPa WNW 2.9mph /  4.7km/h 9.0mph /  14.5km/h 71% 0.00in /  0mm
19:01 34.5 °F /  1.4 °C 25.7 °F /  -3.5 °C 30.40in /  1029.3hPa Calm   8.0mph /  12.9km/h 70% 0.00in /  0mm
19:06 34.5 °F /  1.4 °C 25.7 °F /  -3.5 °C 30.41in /  1029.7hPa North 0.9mph /  1.4km/h 15.0mph /  24.1km/h 70% 0.00in /  0mm
19:11 34.5 °F /  1.4 °C 25.7 °F /  -3.5 °C 30.41in /  1029.7hPa WSW 2.9mph /  4.7km/h 9.0mph /  14.5km/h 70% 0.00in /  0mm
19:16 34.5 °F /  1.4 °C 25.3 °F /  -3.7 °C 30.41in /  1029.7hPa WSW 2.0mph /  3.2km/h 9.0mph /  14.5km/h 69% 0.00in /  0mm
19:21 34.5 °F /  1.4 °C 25.3 °F /  -3.7 °C 30.41in /  1029.7hPa WSW 2.9mph /  4.7km/h 8.0mph /  12.9km/h 69% 0.00in /  0mm
19:31 34.3 °F /  1.3 °C 24.8 °F /  -4 °C 30.41in /  1029.7hPa WSW 2.9mph /  4.7km/h 12.0mph /  19.3km/h 68% 0.00in /  0mm
19:36 34.3 °F /  1.3 °C 25.2 °F /  -3.8 °C 30.41in /  1029.7hPa WNW 6.0mph /  9.7km/h 9.0mph /  14.5km/h 69% 0.00in /  0mm
19:41 34.3 °F /  1.3 °C 24.4 °F /  -4.2 °C 30.42in /  1030hPa WSW 2.9mph /  4.7km/h 15.0mph /  24.1km/h 67% 0.00in /  0mm
19:46 34.3 °F /  1.3 °C 24.8 °F /  -4 °C 30.42in /  1030hPa Calm   11.0mph /  17.7km/h 68% 0.00in /  0mm
19:51 34.3 °F /  1.3 °C 24.4 °F /  -4.2 °C 30.42in /  1030hPa WSW 2.9mph /  4.7km/h 8.0mph /  12.9km/h 67% 0.00in /  0mm
20:01 34.3 °F /  1.3 °C 24.4 °F /  -4.2 °C 30.43in /  1030.4hPa West 10.1mph /  16.3km/h 14.0mph /  22.5km/h 67% 0.00in /  0mm
20:06 34.3 °F /  1.3 °C 24.1 °F /  -4.4 °C 30.43in /  1030.4hPa West 10.1mph /  16.3km/h 15.0mph /  24.1km/h 66% 0.00in /  0mm
20:11 34.2 °F /  1.2 °C 24.1 °F /  -4.4 °C 30.44in /  1030.7hPa SE 6.0mph /  9.7km/h 11.0mph /  17.7km/h 66% 0.00in /  0mm
20:21 34.2 °F /  1.2 °C 24.1 °F /  -4.4 °C 30.43in /  1030.4hPa ESE 4.9mph /  7.9km/h 10.0mph /  16.1km/h 66% 0.00in /  0mm
20:26 34.2 °F /  1.2 °C 24.1 °F /  -4.4 °C 30.43in /  1030.4hPa SW 6.0mph /  9.7km/h 7.0mph /  11.3km/h 66% 0.00in /  0mm
20:31 34.2 °F /  1.2 °C 24.4 °F /  -4.2 °C 30.44in /  1030.7hPa West 4.9mph /  7.9km/h 19.0mph /  30.6km/h 67% 0.00in /  0mm
20:36 34.2 °F /  1.2 °C 24.1 °F /  -4.4 °C 30.44in /  1030.7hPa ESE 2.0mph /  3.2km/h 9.0mph /  14.5km/h 66% 0.00in /  0mm
21:01 34.0 °F /  1.1 °C 24.6 °F /  -4.1 °C 30.46in /  1031.4hPa WNW 0.9mph /  1.4km/h 12.0mph /  19.3km/h 68% 0.00in /  0mm
21:06 34.2 °F /  1.2 °C 24.4 °F /  -4.2 °C 30.46in /  1031.4hPa Calm   8.0mph /  12.9km/h 67% 0.00in /  0mm
21:11 34.2 °F /  1.2 °C 24.4 °F /  -4.2 °C 30.47in /  1031.7hPa WSW 6.9mph /  11.1km/h 10.0mph /  16.1km/h 67% 0.00in /  0mm
21:21 34.0 °F /  1.1 °C 24.3 °F /  -4.3 °C 30.47in /  1031.7hPa SE 6.0mph /  9.7km/h 6.0mph /  9.7km/h 67% 0.00in /  0mm
21:31 33.6 °F /  0.9 °C 23.9 °F /  -4.5 °C 30.47in /  1031.7hPa SE 0.9mph /  1.4km/h 8.0mph /  12.9km/h 67% 0.00in /  0mm
21:36 33.6 °F /  0.9 °C 23.9 °F /  -4.5 °C 30.48in /  1032.1hPa SSE 0.9mph /  1.4km/h 4.0mph /  6.4km/h 67% 0.00in /  0mm
21:46 33.6 °F /  0.9 °C 23.9 °F /  -4.5 °C 30.48in /  1032.1hPa ESE 4.9mph /  7.9km/h 5.0mph /  8km/h 67% 0.00in /  0mm
21:56 33.4 °F /  0.8 °C 23.4 °F /  -4.8 °C 30.49in /  1032.4hPa WSW 8.1mph /  13km/h 16.0mph /  25.7km/h 66% 0.00in /  0mm
22:01 33.4 °F /  0.8 °C 23.7 °F /  -4.6 °C 30.49in /  1032.4hPa WSW 2.0mph /  3.2km/h 12.0mph /  19.3km/h 67% 0.00in /  0mm
22:06 33.4 °F /  0.8 °C 23.7 °F /  -4.6 °C 30.48in /  1032.1hPa WSW 2.9mph /  4.7km/h 7.0mph /  11.3km/h 67% 0.00in /  0mm
22:11 33.4 °F /  0.8 °C 24.1 °F /  -4.4 °C 30.49in /  1032.4hPa SSE 0.9mph /  1.4km/h 13.0mph /  20.9km/h 68% 0.00in /  0mm
22:16 33.3 °F /  0.7 °C 23.5 °F /  -4.7 °C 30.49in /  1032.4hPa NE 2.9mph /  4.7km/h 7.0mph /  11.3km/h 67% 0.00in /  0mm
22:21 33.3 °F /  0.7 °C 23.5 °F /  -4.7 °C 30.49in /  1032.4hPa SE 2.9mph /  4.7km/h 8.0mph /  12.9km/h 67% 0.00in /  0mm
22:26 33.3 °F /  0.7 °C 23.9 °F /  -4.5 °C 30.49in /  1032.4hPa West 2.9mph /  4.7km/h 13.0mph /  20.9km/h 68% 0.00in /  0mm
22:31 33.3 °F /  0.7 °C 23.9 °F /  -4.5 °C 30.49in /  1032.4hPa Calm   9.0mph /  14.5km/h 68% 0.00in /  0mm
22:41 33.3 °F /  0.7 °C 23.5 °F /  -4.7 °C 30.49in /  1032.4hPa Calm   11.0mph /  17.7km/h 67% 0.00in /  0mm
22:46 33.3 °F /  0.7 °C 23.5 °F /  -4.7 °C 30.50in /  1032.7hPa West 0.9mph /  1.4km/h 9.0mph /  14.5km/h 67% 0.00in /  0mm
22:51 33.3 °F /  0.7 °C 23.5 °F /  -4.7 °C 30.50in /  1032.7hPa WNW 8.9mph /  14.3km/h 9.0mph /  14.5km/h 67% 0.00in /  0mm
23:01 33.3 °F /  0.7 °C 23.5 °F /  -4.7 °C 30.50in /  1032.7hPa West 0.9mph /  1.4km/h 6.0mph /  9.7km/h 67% 0.00in /  0mm
23:06 33.4 °F /  0.8 °C 23.4 °F /  -4.8 °C 30.50in /  1032.7hPa ESE 2.9mph /  4.7km/h 4.0mph /  6.4km/h 66% 0.00in /  0mm
23:16 33.4 °F /  0.8 °C 23.4 °F /  -4.8 °C 30.50in /  1032.7hPa WNW 2.0mph /  3.2km/h 8.0mph /  12.9km/h 66% 0.00in /  0mm
23:21 33.6 °F /  0.9 °C 23.5 °F /  -4.7 °C 30.50in /  1032.7hPa WNW 0.9mph /  1.4km/h 7.0mph /  11.3km/h 66% 0.00in /  0mm
23:26 33.6 °F /  0.9 °C 23.2 °F /  -4.9 °C 30.50in /  1032.7hPa NE 6.0mph /  9.7km/h 11.0mph /  17.7km/h 65% 0.00in /  0mm
23:32 33.6 °F /  0.9 °C 23.5 °F /  -4.7 °C 30.51in /  1033.1hPa ENE 4.9mph /  7.9km/h 5.0mph /  8km/h 66% 0.00in /  0mm
23:37 33.6 °F /  0.9 °C 23.2 °F /  -4.9 °C 30.51in /  1033.1hPa West 0.9mph /  1.4km/h 5.0mph /  8km/h 65% 0.00in /  0mm
23:46 33.6 °F /  0.9 °C 22.8 °F /  -5.1 °C 30.51in /  1033.1hPa NW 6.0mph /  9.7km/h 8.0mph /  12.9km/h 64% 0.00in /  0mm
23:51 33.6 °F /  0.9 °C 22.8 °F /  -5.1 °C 30.50in /  1032.7hPa NW 4.9mph /  7.9km/h 13.0mph /  20.9km/h 64% 0.00in /  0mm
23:56 33.6 °F /  0.9 °C 22.8 °F /  -5.1 °C 30.50in /  1032.7hPa WNW 8.1mph /  13km/h 8.1mph /  13km/h 64% 0.00in /  0mm
WheeWeather.com
Compliments of Weather Underground - 3.25 mb